Terminal Aerodrome Forecast
Issued by NWS

Home | Current Version | Previous Version | Text Only | Print | Product List | Glossary Off
Versions: 1 2 3 4 5 6 7 8 9 10 11 12 13 14

530
FTUS43 KGRB 120520
TAFCWA
TAF
KCWA 120520Z 1206/1306 28007KT P6SM BKN035
     FM120900 30008G15KT P6SM BKN025
     FM121500 32015G25KT P6SM -SN BKN035
     FM130000 32010KT P6SM SCT040
      AMD LTD TO CLD VIS AND WND TIL 11Z=

USA.gov is the U.S. government's official web portal to all federal, state and local government web resources and services.